createdAt,value
2019-03-04T00:02:28.782Z,10.59
2019-03-04T00:07:32.355Z,10.49
2019-03-04T00:12:35.924Z,10.66
2019-03-04T00:17:39.593Z,10.60
2019-03-04T00:22:43.193Z,10.63
2019-03-04T00:27:46.726Z,10.85
2019-03-04T00:32:50.275Z,10.85
2019-03-04T00:37:53.818Z,10.75
2019-03-04T00:42:57.415Z,10.74
2019-03-04T00:48:01.067Z,10.85
2019-03-04T00:53:05.038Z,10.69
2019-03-04T00:58:09.284Z,10.68
2019-03-04T01:03:12.904Z,10.62
2019-03-04T01:08:16.476Z,10.49
2019-03-04T01:13:20.044Z,10.44
2019-03-04T01:18:23.612Z,10.56
2019-03-04T01:23:27.161Z,10.53
2019-03-04T01:28:30.731Z,10.57
2019-03-04T01:33:34.349Z,10.50
2019-03-04T01:38:37.873Z,10.45
2019-03-04T01:43:41.419Z,10.45
2019-03-04T01:48:45.396Z,10.52
2019-03-04T01:53:49.032Z,10.41
2019-03-04T01:58:52.620Z,10.54
2019-03-04T02:03:56.159Z,10.49
2019-03-04T02:08:59.702Z,10.51
2019-03-04T02:14:03.252Z,10.51
2019-03-04T02:19:06.793Z,10.39
2019-03-04T02:24:18.884Z,10.35
2019-03-04T02:29:22.399Z,10.28
2019-03-04T02:34:26.005Z,10.37
2019-03-04T02:39:29.520Z,10.26
2019-03-04T02:44:33.086Z,10.21
2019-03-04T02:49:36.671Z,10.16
2019-03-04T02:54:40.239Z,10.13
2019-03-04T02:59:43.838Z,10.24
2019-03-04T03:04:47.372Z,10.24
2019-03-04T03:09:50.943Z,10.31
2019-03-04T03:14:54.841Z,10.23
2019-03-04T03:19:58.366Z,10.16
2019-03-04T03:25:01.900Z,10.05
2019-03-04T03:30:08.886Z,9.91
2019-03-04T03:35:12.403Z,9.91
2019-03-04T03:40:20.148Z,9.81
2019-03-04T03:45:23.696Z,9.72
2019-03-04T03:50:27.292Z,9.71
2019-03-04T03:55:30.813Z,9.68
2019-03-04T04:00:34.406Z,9.46
2019-03-04T04:05:37.946Z,9.53
2019-03-04T04:10:41.559Z,9.48
2019-03-04T04:15:45.181Z,9.40
2019-03-04T04:20:48.720Z,9.38
2019-03-04T04:25:52.317Z,9.36
2019-03-04T04:30:55.869Z,9.24
2019-03-04T04:35:59.405Z,9.31
2019-03-04T04:41:02.966Z,9.35
2019-03-04T04:46:06.505Z,9.37
2019-03-04T04:51:11.351Z,9.27
2019-03-04T04:56:14.949Z,9.15
2019-03-04T05:01:18.513Z,9.14
2019-03-04T05:06:22.033Z,9.21
2019-03-04T05:11:25.972Z,9.17
2019-03-04T05:16:29.498Z,9.21
2019-03-04T05:21:33.096Z,9.21
2019-03-04T05:26:36.615Z,9.17
2019-03-04T05:31:40.177Z,9.08
2019-03-04T05:36:43.785Z,9.03
2019-03-04T05:41:47.380Z,9.00
2019-03-04T05:46:50.941Z,9.08
2019-03-04T05:51:54.477Z,9.12
2019-03-04T05:56:58.056Z,9.11
2019-03-04T06:02:04.982Z,9.29
2019-03-04T06:07:10.119Z,10.38
2019-03-04T06:12:13.744Z,13.12
2019-03-04T06:17:17.283Z,15.17
2019-03-04T06:22:20.859Z,15.30
2019-03-04T06:27:24.430Z,18.62
2019-03-04T06:32:27.978Z,19.64
2019-03-04T06:37:31.558Z,22.28
2019-03-04T06:42:35.212Z,23.13
2019-03-04T06:47:38.732Z,23.53
2019-03-04T06:52:42.275Z,22.49
2019-03-04T06:57:45.858Z,22.46
2019-03-04T07:02:49.407Z,20.64
2019-03-04T07:07:52.982Z,21.44
2019-03-04T07:12:56.572Z,19.49
2019-03-04T07:18:00.134Z,22.85
2019-03-04T07:23:03.683Z,17.73
2019-03-04T07:28:07.258Z,20.00
2019-03-04T07:33:10.781Z,17.74
2019-03-04T07:38:20.281Z,15.66
2019-03-04T07:43:23.844Z,14.65
2019-03-04T07:48:27.403Z,14.18
2019-03-04T07:53:31.013Z,14.51
2019-03-04T07:58:34.562Z,14.20
2019-03-04T08:03:38.107Z,15.00
2019-03-04T08:08:45.905Z,15.53
2019-03-04T08:14:02.250Z,15.22
2019-03-04T08:19:05.800Z,15.10
2019-03-04T08:24:09.379Z,15.43
2019-03-04T08:29:12.892Z,15.47
2019-03-04T08:34:16.469Z,15.17
2019-03-04T08:39:20.026Z,14.84
2019-03-04T08:44:23.614Z,15.54
2019-03-04T08:49:27.175Z,21.91
2019-03-04T08:54:30.715Z,25.86
2019-03-04T08:59:34.246Z,26.43
2019-03-04T09:04:38.188Z,29.44
2019-03-04T09:09:41.744Z,23.12
2019-03-04T09:14:45.342Z,22.71
2019-03-04T09:19:48.873Z,21.30
2019-03-04T09:24:52.403Z,21.18
2019-03-04T09:29:55.938Z,28.68
2019-03-04T09:34:59.501Z,22.41
2019-03-04T09:40:03.062Z,22.14
2019-03-04T09:45:12.027Z,20.04
2019-03-04T09:50:26.319Z,19.41
2019-03-04T09:55:29.878Z,19.05
2019-03-04T10:00:42.204Z,18.85
2019-03-04T10:06:05.716Z,18.37
2019-03-04T10:11:18.406Z,18.66
2019-03-04T10:16:27.999Z,18.96
2019-03-04T10:21:35.112Z,18.97
2019-03-04T10:26:47.286Z,19.30
2019-03-04T10:32:06.304Z,19.38
2019-03-04T10:37:34.613Z,18.77
2019-03-04T10:43:04.039Z,18.66
2019-03-04T10:48:07.586Z,18.45
2019-03-04T10:53:11.168Z,18.01
2019-03-04T10:58:14.720Z,17.53
2019-03-04T11:03:18.315Z,17.56
2019-03-04T11:08:21.974Z,17.86
2019-03-04T11:13:25.563Z,17.87
2019-03-04T11:18:29.086Z,18.31
2019-03-04T11:23:33.130Z,17.91
2019-03-04T11:28:36.684Z,17.93
2019-03-04T11:33:40.305Z,17.77
2019-03-04T11:38:49.597Z,17.93
2019-03-04T11:43:53.174Z,17.42
2019-03-04T11:48:56.723Z,17.29
2019-03-04T11:54:00.277Z,17.09
2019-03-04T11:59:04.841Z,16.90
2019-03-04T12:04:08.363Z,16.79
2019-03-04T12:09:13.578Z,16.56
2019-03-04T12:14:17.153Z,16.47
2019-03-04T12:19:20.722Z,16.29
2019-03-04T12:24:24.284Z,16.09
2019-03-04T12:29:27.832Z,16.04
2019-03-04T12:34:31.403Z,15.84
2019-03-04T12:39:34.953Z,15.85
2019-03-04T12:44:38.533Z,15.80
2019-03-04T12:49:42.049Z,15.79
2019-03-04T12:54:45.589Z,15.77
2019-03-04T12:59:49.144Z,15.85
2019-03-04T13:04:52.684Z,15.95
2019-03-04T13:09:56.227Z,16.19
2019-03-04T13:14:59.793Z,16.46
2019-03-04T13:20:03.892Z,16.94
2019-03-04T13:25:08.139Z,16.87
2019-03-04T13:30:23.582Z,16.84
2019-03-04T13:35:32.555Z,16.98
2019-03-04T13:40:36.093Z,17.32
2019-03-04T13:45:39.647Z,16.93
2019-03-04T13:50:43.172Z,16.85
2019-03-04T13:55:46.742Z,16.82
2019-03-04T14:00:50.300Z,16.63
2019-03-04T14:05:53.854Z,16.47
2019-03-04T14:10:57.417Z,16.29
2019-03-04T14:16:01.029Z,16.08
2019-03-04T14:21:05.431Z,16.26
2019-03-04T14:26:09.392Z,16.60
2019-03-04T14:31:13.021Z,16.85
2019-03-04T14:36:16.698Z,16.88
2019-03-04T14:41:20.246Z,17.05
2019-03-04T14:46:24.330Z,17.22
2019-03-04T14:51:27.895Z,17.16
2019-03-04T14:56:31.491Z,17.12
2019-03-04T15:01:35.040Z,16.98
2019-03-04T15:06:38.582Z,16.85
2019-03-04T15:11:42.173Z,16.78
2019-03-04T15:16:45.726Z,16.68
2019-03-04T15:21:49.342Z,16.54
2019-03-04T15:26:52.893Z,16.37
2019-03-04T15:31:56.453Z,16.18
2019-03-04T15:36:59.986Z,16.07
2019-03-04T15:42:03.572Z,16.03
2019-03-04T15:47:07.205Z,15.97
2019-03-04T15:52:10.824Z,15.84
2019-03-04T15:57:16.923Z,15.76
2019-03-04T16:02:20.481Z,15.71
2019-03-04T16:07:24.077Z,15.59
2019-03-04T16:12:27.886Z,15.47
2019-03-04T16:17:31.448Z,15.33
2019-03-04T16:22:35.090Z,15.26
2019-03-04T16:27:38.791Z,15.17
2019-03-04T16:32:42.555Z,15.08
2019-03-04T16:37:46.102Z,14.97
2019-03-04T16:42:49.691Z,14.93
2019-03-04T16:47:53.237Z,14.79
2019-03-04T16:52:59.231Z,14.74
2019-03-04T16:58:03.016Z,14.63
2019-03-04T17:03:06.548Z,14.57
2019-03-04T17:08:10.092Z,14.44
2019-03-04T17:13:13.638Z,14.39
2019-03-04T17:18:17.589Z,14.33
2019-03-04T17:23:21.283Z,14.24
2019-03-04T17:28:24.865Z,14.16
2019-03-04T17:33:28.864Z,14.10
2019-03-04T17:38:32.383Z,14.10
2019-03-04T17:43:35.968Z,14.02
2019-03-04T17:48:39.536Z,13.93
2019-03-04T17:53:43.132Z,13.87
2019-03-04T17:58:46.675Z,13.91
2019-03-04T18:03:50.216Z,13.78
2019-03-04T18:08:53.789Z,13.80
2019-03-04T18:13:57.432Z,13.67
2019-03-04T18:19:00.995Z,13.62
2019-03-04T18:24:05.104Z,13.52
2019-03-04T18:29:23.871Z,13.50
2019-03-04T18:34:45.667Z,13.50
2019-03-04T18:40:11.842Z,13.37
2019-03-04T18:45:18.634Z,13.30
2019-03-04T18:50:23.179Z,13.25
2019-03-04T18:55:26.962Z,13.18
2019-03-04T19:00:30.654Z,13.08
2019-03-04T19:05:34.322Z,12.92
2019-03-04T19:10:38.391Z,12.93
2019-03-04T19:15:42.418Z,12.92
2019-03-04T19:20:46.295Z,12.89
2019-03-04T19:25:50.617Z,12.81
2019-03-04T19:30:54.201Z,12.71
2019-03-04T19:35:57.780Z,12.75
2019-03-04T19:41:01.400Z,12.63
2019-03-04T19:46:05.092Z,12.64
2019-03-04T19:51:08.644Z,12.64
2019-03-04T19:56:12.186Z,12.42
2019-03-04T20:01:15.720Z,12.41
2019-03-04T20:06:19.260Z,12.33
2019-03-04T20:11:22.839Z,12.26
2019-03-04T20:16:26.375Z,12.27
2019-03-04T20:21:29.990Z,12.28
2019-03-04T20:26:33.554Z,12.19
2019-03-04T20:31:37.100Z,12.16
2019-03-04T20:36:40.669Z,12.21
2019-03-04T20:41:44.248Z,12.31
2019-03-04T20:46:47.860Z,12.36
2019-03-04T20:51:51.479Z,12.29
2019-03-04T20:56:55.075Z,12.31
2019-03-04T21:01:58.696Z,12.31
2019-03-04T21:07:02.230Z,11.58
2019-03-04T21:12:05.799Z,11.01
2019-03-04T21:17:09.341Z,10.53
2019-03-04T21:22:12.880Z,10.27
2019-03-04T21:27:16.553Z,10.27
2019-03-04T21:32:32.583Z,10.07
2019-03-04T21:37:38.657Z,9.95
2019-03-04T21:42:54.449Z,9.77
2019-03-04T21:48:20.586Z,9.67
2019-03-04T21:53:29.869Z,9.58
2019-03-04T21:58:33.412Z,9.65
2019-03-04T22:03:37.036Z,9.44
2019-03-04T22:08:40.579Z,9.51
2019-03-04T22:13:44.318Z,9.48
2019-03-04T22:18:48.127Z,9.38
2019-03-04T22:23:54.205Z,9.36
2019-03-04T22:28:58.044Z,9.26
2019-03-04T22:34:01.584Z,9.24
2019-03-04T22:39:06.631Z,9.21
2019-03-04T22:44:10.276Z,8.95
2019-03-04T22:49:13.817Z,8.70
2019-03-04T22:54:17.746Z,8.69
2019-03-04T22:59:21.315Z,8.54
2019-03-04T23:04:25.295Z,8.59
2019-03-04T23:09:32.137Z,8.58
2019-03-04T23:14:35.660Z,8.89
2019-03-04T23:19:39.239Z,8.86
2019-03-04T23:24:42.864Z,8.85
2019-03-04T23:29:46.742Z,8.98
2019-03-04T23:34:50.261Z,8.52
2019-03-04T23:39:53.807Z,8.80
2019-03-04T23:44:57.367Z,8.69
2019-03-04T23:50:20.941Z,8.70
2019-03-04T23:55:24.474Z,8.83
